Time;durP1;ratioP1;P1;durP2;ratioP2;P2;SDS_P1;SDS_P2;PMS_P1;PMS_P2;Temp;Humidity;BMP_temperature;BMP_pressure;BME280_temperature;BME280_humidity;BME280_pressure;Samples;Min_cycle;Max_cycle;Signal;HPM_P1;HPM_P2
2024/01/13 00:01:01;;;;;;;25.23;14.00;;;;;;;3.22;93.12;102828.72;5082974;28;20028;-82
2024/01/13 00:03:27;;;;;;;27.42;13.88;;;;;;;3.17;93.78;102828.63;5080106;28;20023;-81
2024/01/13 00:05:52;;;;;;;29.20;15.00;;;;;;;3.19;93.61;102831.28;5063696;28;20115;-82
2024/01/13 00:08:18;;;;;;;27.50;13.82;;;;;;;3.19;93.50;102826.03;5065243;28;20026;-82
2024/01/13 00:10:43;;;;;;;25.67;14.00;;;;;;;3.19;93.45;102823.44;5084007;28;20131;-81
2024/01/13 00:13:08;;;;;;;23.80;12.82;;;;;;;3.17;93.62;102815.56;5082248;28;20028;-82
2024/01/13 00:15:35;;;;;;;24.13;13.23;;;;;;;3.18;93.51;102817.31;5085879;28;20044;-81
2024/01/13 00:18:00;;;;;;;25.63;13.43;;;;;;;3.19;93.87;102818.19;5064546;28;20462;-82
2024/01/13 00:20:26;;;;;;;24.25;13.15;;;;;;;3.18;93.87;102819.06;5068166;28;20042;-82
2024/01/13 00:22:51;;;;;;;27.77;14.05;;;;;;;3.18;93.77;102811.22;5067704;28;20037;-84
2024/01/13 00:25:16;;;;;;;23.73;13.63;;;;;;;3.19;93.85;102813.84;5062376;28;20256;-82
2024/01/13 00:27:42;;;;;;;23.42;14.23;;;;;;;3.16;93.96;102803.31;5080183;28;20494;-82
2024/01/13 00:30:07;;;;;;;23.63;13.25;;;;;;;3.20;94.17;102804.28;5084005;28;20024;-81
2024/01/13 00:32:33;;;;;;;26.95;14.05;;;;;;;3.21;94.22;102803.41;5060899;28;20024;-82
2024/01/13 00:34:58;;;;;;;24.40;14.20;;;;;;;3.20;93.81;102799.06;5062656;28;20081;-81
2024/01/13 00:37:23;;;;;;;21.95;13.05;;;;;;;3.19;93.61;102802.53;5080027;28;20085;-82
2024/01/13 00:39:49;;;;;;;22.35;13.65;;;;;;;3.23;93.51;102799.13;5062518;28;20063;-82
2024/01/13 00:42:14;;;;;;;22.55;13.15;;;;;;;3.25;93.56;102794.81;5062876;28;20821;-82
2024/01/13 00:44:39;;;;;;;20.95;12.27;;;;;;;3.25;93.18;102794.81;5064011;28;20467;-82
2024/01/13 00:47:05;;;;;;;20.98;11.65;;;;;;;3.19;93.64;102784.22;5079255;28;20021;-82
2024/01/13 00:49:30;;;;;;;23.40;12.60;;;;;;;3.12;93.11;102783.19;5064763;28;20734;-82
2024/01/13 00:51:55;;;;;;;19.83;12.75;;;;;;;3.15;93.06;102782.38;5084087;28;20505;-82
2024/01/13 00:54:21;;;;;;;21.77;12.35;;;;;;;3.15;93.38;102785.00;5082235;28;20020;-82
2024/01/13 00:56:46;;;;;;;19.92;12.65;;;;;;;3.18;93.56;102779.84;5063875;28;20081;-81
2024/01/13 00:59:12;;;;;;;24.30;12.60;;;;;;;3.21;93.48;102782.50;5079108;28;20028;-81
2024/01/13 01:01:37;;;;;;;21.63;12.18;;;;;;;3.20;93.74;102773.78;5060807;28;20062;-82
2024/01/13 01:04:03;;;;;;;19.83;12.50;;;;;;;3.24;93.72;102775.63;5065347;28;20111;-78
2024/01/13 01:06:28;;;;;;;21.42;11.48;;;;;;;3.25;93.52;102771.28;5061461;28;20085;-78
2024/01/13 01:08:53;;;;;;;21.05;11.98;;;;;;;3.25;93.58;102761.69;5083350;28;20020;-77
2024/01/13 01:11:19;;;;;;;24.85;12.05;;;;;;;3.28;93.59;102768.75;5061130;28;20043;-77
2024/01/13 01:13:44;;;;;;;20.52;10.85;;;;;;;3.28;93.29;102760.91;5080675;28;20073;-77
2024/01/13 01:16:09;;;;;;;18.45;10.82;;;;;;;3.27;93.52;102753.91;5061549;28;20387;-77
2024/01/13 01:18:35;;;;;;;24.27;12.68;;;;;;;3.28;93.50;102760.91;5062474;28;20298;-77
2024/01/13 01:21:00;;;;;;;22.50;12.23;;;;;;;3.27;93.43;102754.78;5080590;28;20027;-77
2024/01/13 01:23:25;;;;;;;19.30;11.35;;;;;;;3.28;93.46;102755.66;5062834;28;20020;-77
2024/01/13 01:25:51;;;;;;;22.65;12.10;;;;;;;3.26;93.48;102758.25;5080187;28;20382;-77
2024/01/13 01:28:16;;;;;;;20.95;11.70;;;;;;;3.28;93.70;102750.44;5079355;28;20550;-77
2024/01/13 01:30:41;;;;;;;20.75;11.90;;;;;;;3.26;93.59;102752.13;5059118;28;20032;-77
2024/01/13 01:33:07;;;;;;;20.30;12.63;;;;;;;3.24;93.66;102744.25;5061838;28;20036;-77
2024/01/13 01:35:32;;;;;;;19.58;11.50;;;;;;;3.23;93.71;102744.25;5077358;28;20042;-78
2024/01/13 01:37:57;;;;;;;22.73;11.82;;;;;;;3.23;93.44;102736.41;5079671;28;20028;-77
2024/01/13 01:40:26;;;;;;;21.02;12.38;;;;;;;3.26;93.76;102731.22;5076454;28;20411;-77
2024/01/13 01:42:52;;;;;;;19.27;11.95;;;;;;;3.26;93.90;102734.75;5061722;28;20060;-77
2024/01/13 01:45:17;;;;;;;21.98;11.52;;;;;;;3.26;93.88;102739.97;5078606;28;20059;-77
2024/01/13 01:47:44;;;;;;;22.17;11.63;;;;;;;3.23;93.87;102737.28;5060800;28;20036;-77
2024/01/13 01:50:10;;;;;;;17.85;10.88;;;;;;;3.27;93.71;102738.22;5080278;28;20036;-77
2024/01/13 01:52:38;;;;;;;26.88;12.70;;;;;;;3.27;93.82;102738.22;5079321;28;20023;-77
2024/01/13 01:55:04;;;;;;;18.60;11.65;;;;;;;3.29;93.93;102733.91;5060464;28;20044;-77
2024/01/13 01:57:31;;;;;;;19.52;12.32;;;;;;;3.27;93.96;102731.25;5061645;28;20032;-77
2024/01/13 01:59:57;;;;;;;19.40;11.90;;;;;;;3.24;93.90;102735.53;5061638;28;20115;-77
2024/01/13 02:02:23;;;;;;;20.20;12.43;;;;;;;3.22;94.07;102727.69;5078541;28;20548;-77
2024/01/13 02:04:48;;;;;;;22.52;11.95;;;;;;;3.22;94.01;102724.19;5078820;28;20135;-77
2024/01/13 02:07:14;;;;;;;23.60;12.18;;;;;;;3.20;94.06;102718.03;5080788;28;20048;-77
2024/01/13 02:09:41;;;;;;;23.00;11.68;;;;;;;3.21;94.10;102719.78;5080304;28;20078;-77
2024/01/13 02:12:07;;;;;;;19.77;11.90;;;;;;;3.19;93.72;102719.75;5080550;28;20028;-77
2024/01/13 02:14:32;;;;;;;18.00;10.98;;;;;;;3.20;93.82;102710.19;5083407;28;20117;-77
2024/01/13 02:16:58;;;;;;;19.95;12.20;;;;;;;3.21;94.03;102711.94;5080657;28;20215;-77
2024/01/13 02:19:23;;;;;;;17.65;11.52;;;;;;;3.18;93.87;102701.44;5059845;28;20024;-77
2024/01/13 02:21:48;;;;;;;20.20;11.70;;;;;;;3.20;93.67;102695.38;5078449;28;20016;-77
2024/01/13 02:24:14;;;;;;;20.65;12.55;;;;;;;3.21;93.56;102697.13;5076377;28;20036;-77
2024/01/13 02:26:39;;;;;;;19.80;11.13;;;;;;;3.25;93.71;102698.97;5079839;28;20029;-77
2024/01/13 02:29:05;;;;;;;19.33;11.80;;;;;;;3.26;93.46;102692.00;5062111;28;20050;-77
2024/01/13 02:31:30;;;;;;;21.48;11.90;;;;;;;3.27;93.52;102688.56;5077525;28;20031;-77
2024/01/13 02:33:55;;;;;;;19.67;12.23;;;;;;;3.20;93.53;102681.44;5074602;28;20024;-77
2024/01/13 02:36:21;;;;;;;18.63;11.70;;;;;;;3.23;93.77;102682.38;5078671;28;20036;-77
2024/01/13 02:38:46;;;;;;;16.23;9.93;;;;;;;3.27;92.81;102681.59;5079562;28;20043;-77
2024/01/13 02:41:11;;;;;;;17.45;11.23;;;;;;;3.29;93.18;102674.66;5076339;28;20055;-77
2024/01/13 02:43:37;;;;;;;19.67;11.13;;;;;;;3.29;92.98;102668.56;5074452;28;20028;-76
2024/01/13 02:46:03;;;;;;;18.00;11.85;;;;;;;3.30;92.92;102670.31;5062585;28;20012;-81
2024/01/13 02:48:38;;;;;;;22.10;12.90;;;;;;;3.28;93.31;102664.19;5059940;28;20044;-80
2024/01/13 02:51:06;;;;;;;17.20;11.50;;;;;;;3.27;92.86;102659.81;5078572;28;20036;-81
2024/01/13 02:53:31;;;;;;;17.13;11.40;;;;;;;3.30;93.05;102659.84;5058745;28;20035;-82
2024/01/13 02:55:56;;;;;;;19.92;12.85;;;;;;;3.25;93.05;102658.88;5081454;28;20037;-81
2024/01/13 02:58:22;;;;;;;20.77;12.90;;;;;;;3.18;92.73;102647.44;5085827;28;20124;-81
2024/01/13 03:00:47;;;;;;;19.83;13.07;;;;;;;3.16;93.14;102645.63;5087659;28;20028;-81
2024/01/13 03:03:12;;;;;;;24.75;13.30;;;;;;;3.12;93.26;102638.59;5084306;28;20072;-81
2024/01/13 03:05:38;;;;;;;21.20;12.55;;;;;;;3.09;93.07;102638.56;5081836;28;20594;-81
2024/01/13 03:08:03;;;;;;;20.38;13.57;;;;;;;3.04;93.33;102625.41;5084190;28;20032;-81
2024/01/13 03:10:31;;;;;;;23.13;13.93;;;;;;;3.06;93.15;102628.91;5088445;28;20052;-81
2024/01/13 03:12:56;;;;;;;23.80;15.00;;;;;;;3.04;93.48;102636.72;5064383;28;20538;-81
2024/01/13 03:15:21;;;;;;;23.80;13.88;;;;;;;3.08;93.20;102622.00;5080239;28;20175;-81
2024/01/13 03:17:47;;;;;;;23.48;13.93;;;;;;;3.13;93.04;102624.69;5064747;28;20028;-80
2024/01/13 03:20:12;;;;;;;23.67;13.48;;;;;;;3.15;92.96;102615.13;5085109;28;20020;-81
2024/01/13 03:22:38;;;;;;;20.77;13.02;;;;;;;3.14;92.72;102609.03;5071286;28;20425;-81
2024/01/13 03:25:03;;;;;;;20.65;13.10;;;;;;;3.15;92.37;102602.94;5087602;28;20067;-77
2024/01/13 03:27:29;;;;;;;20.38;12.43;;;;;;;3.18;92.56;102607.38;5084491;28;20034;-76
2024/01/13 03:29:54;;;;;;;21.13;13.07;;;;;;;3.19;92.07;102601.28;5069108;28;20105;-76
2024/01/13 03:32:19;;;;;;;20.02;12.18;;;;;;;3.20;91.97;102587.34;5088387;28;20086;-76
2024/01/13 03:34:44;;;;;;;21.42;12.85;;;;;;;3.22;91.98;102583.94;5087588;28;20031;-77
2024/01/13 03:37:10;;;;;;;18.77;11.45;;;;;;;3.24;91.62;102595.28;5088239;28;20108;-76
2024/01/13 03:39:35;;;;;;;18.60;11.90;;;;;;;3.24;91.54;102583.94;5091267;28;20063;-77
2024/01/13 03:42:00;;;;;;;20.88;11.73;;;;;;;3.26;91.27;102579.63;5093741;28;21154;-76
2024/01/13 03:44:26;;;;;;;15.50;10.43;;;;;;;3.28;91.45;102577.94;5095474;28;20502;-76
2024/01/13 03:46:51;;;;;;;19.27;10.18;;;;;;;3.30;91.63;102569.25;5093787;28;20028;-76
2024/01/13 03:49:17;;;;;;;16.02;9.98;;;;;;;3.32;91.61;102567.56;5087725;28;20114;-76
2024/01/13 03:51:42;;;;;;;13.45;9.75;;;;;;;3.33;91.72;102566.69;5059574;28;20354;-76
2024/01/13 03:54:07;;;;;;;18.50;10.07;;;;;;;3.31;91.77;102565.81;5092171;28;20035;-77
2024/01/13 03:56:33;;;;;;;13.68;9.68;;;;;;;3.32;91.78;102564.94;5069577;28;20024;-76
2024/01/13 03:58:58;;;;;;;16.63;9.38;;;;;;;3.34;91.47;102557.09;5093084;28;20445;-77
2024/01/13 04:01:23;;;;;;;13.55;9.00;;;;;;;3.37;91.46;102556.31;5067068;28;20021;-76
2024/01/13 04:03:49;;;;;;;13.43;8.40;;;;;;;3.36;91.60;102557.13;5088946;28;20024;-76
2024/01/13 04:06:14;;;;;;;12.18;7.50;;;;;;;3.37;91.74;102554.56;5091470;28;20016;-76
2024/01/13 04:08:39;;;;;;;12.20;8.23;;;;;;;3.39;91.77;102555.44;5090816;28;20027;-77
2024/01/13 04:11:07;;;;;;;13.02;7.47;;;;;;;3.37;92.04;102546.72;5086008;28;20067;-77
2024/01/13 04:13:33;;;;;;;11.00;7.57;;;;;;;3.34;92.22;102541.44;5088031;28;20027;-77
2024/01/13 04:15:58;;;;;;;10.73;6.97;;;;;;;3.38;92.16;102545.84;5068056;28;20021;-77
2024/01/13 04:18:24;;;;;;;11.63;6.38;;;;;;;3.40;91.84;102541.53;5093298;28;20031;-76
2024/01/13 04:20:49;;;;;;;11.02;6.90;;;;;;;3.41;92.40;102542.44;5087501;28;20472;-76
2024/01/13 04:23:14;;;;;;;9.50;6.47;;;;;;;3.38;92.26;102530.16;5091485;28;20026;-77
2024/01/13 04:25:40;;;;;;;11.77;6.97;;;;;;;3.40;92.53;102536.28;5069009;28;20024;-76
2024/01/13 04:28:05;;;;;;;9.60;5.93;;;;;;;3.42;92.80;102531.13;5066085;28;20387;-77
2024/01/13 04:30:30;;;;;;;8.13;5.25;;;;;;;3.42;93.09;102529.38;5065789;28;20475;-77
2024/01/13 04:32:57;;;;;;;9.45;5.38;;;;;;;3.40;92.87;102522.34;5084418;28;20028;-77
2024/01/13 04:35:22;;;;;;;9.55;5.53;;;;;;;3.40;92.97;102525.84;5074245;28;20130;-77
2024/01/13 04:37:47;;;;;;;7.45;5.15;;;;;;;3.37;93.32;102525.81;5091608;28;20032;-77
2024/01/13 04:40:13;;;;;;;7.07;5.10;;;;;;;3.36;93.70;102536.22;5087793;28;20012;-77
2024/01/13 04:42:38;;;;;;;9.60;5.43;;;;;;;3.31;93.72;102536.13;5085711;28;20107;-77
2024/01/13 04:45:04;;;;;;;8.38;5.47;;;;;;;3.35;94.13;102527.50;5092585;28;20128;-77
2024/01/13 04:47:29;;;;;;;10.13;5.90;;;;;;;3.37;93.88;102531.03;5091171;28;20067;-76
2024/01/13 04:49:55;;;;;;;9.52;5.88;;;;;;;3.35;94.60;102521.38;5084113;28;20427;-77
2024/01/13 04:52:20;;;;;;;10.30;5.50;;;;;;;3.34;94.26;102530.97;5064015;28;20070;-77
2024/01/13 04:54:45;;;;;;;8.85;5.68;;;;;;;3.32;94.21;102528.34;5088979;28;20377;-77
2024/01/13 04:57:11;;;;;;;10.50;6.88;;;;;;;3.31;94.74;102525.69;5070577;28;20475;-77
2024/01/13 04:59:36;;;;;;;8.60;6.22;;;;;;;3.31;95.00;102525.69;5083855;28;20035;-77
2024/01/13 05:02:01;;;;;;;8.73;5.75;;;;;;;3.28;94.92;102516.06;5086834;28;20522;-77
2024/01/13 05:04:27;;;;;;;9.73;6.15;;;;;;;3.30;95.15;102523.94;5090697;28;20032;-81
2024/01/13 05:06:52;;;;;;;9.25;5.93;;;;;;;3.30;95.16;102529.16;5092584;28;20103;-81
2024/01/13 05:09:17;;;;;;;11.30;6.55;;;;;;;3.28;95.24;102523.03;5070709;28;20401;-81
2024/01/13 05:11:43;;;;;;;11.27;6.72;;;;;;;3.26;95.64;102512.56;5073741;28;20019;-81
2024/01/13 05:14:08;;;;;;;9.65;6.05;;;;;;;3.27;95.52;102506.47;5062733;28;20039;-82
2024/01/13 05:16:33;;;;;;;9.30;5.90;;;;;;;3.30;95.54;102513.47;5086479;28;20032;-82
2024/01/13 05:18:59;;;;;;;10.05;6.93;;;;;;;3.33;95.52;102524.00;5084234;28;20041;-82
2024/01/13 05:21:24;;;;;;;9.50;6.78;;;;;;;3.37;95.54;102528.41;5091316;28;20556;-82
2024/01/13 05:23:50;;;;;;;9.73;6.90;;;;;;;3.34;95.44;102528.34;5090802;28;20163;-81
2024/01/13 05:26:15;;;;;;;11.73;7.93;;;;;;;3.30;96.00;102516.97;5074489;28;20047;-82
2024/01/13 05:28:40;;;;;;;11.95;7.78;;;;;;;3.29;95.97;102517.81;5083668;28;20024;-82
2024/01/13 05:31:06;;;;;;;12.80;8.07;;;;;;;3.28;96.50;102515.19;5094368;28;20134;-83
2024/01/13 05:33:31;;;;;;;13.52;7.93;;;;;;;3.25;96.58;102508.16;5094063;28;20028;-81
2024/01/13 05:35:56;;;;;;;16.77;10.57;;;;;;;3.27;96.83;102503.00;5083541;28;20039;-82
2024/01/13 05:38:22;;;;;;;15.45;9.65;;;;;;;3.30;96.39;102511.72;5089121;28;20024;-82
2024/01/13 05:40:48;;;;;;;21.58;10.43;;;;;;;3.34;96.71;102502.22;5069656;28;20434;-82
2024/01/13 05:43:13;;;;;;;20.63;11.18;;;;;;;3.33;96.59;102497.84;5080431;28;20035;-83
2024/01/13 05:45:40;;;;;;;20.75;12.27;;;;;;;3.37;96.29;102510.13;5068553;28;20024;-78
2024/01/13 05:48:05;;;;;;;21.20;12.27;;;;;;;3.36;96.56;102502.22;5089360;28;20036;-78
2024/01/13 05:50:30;;;;;;;18.08;12.52;;;;;;;3.38;96.47;102508.38;5085170;28;20431;-78
2024/01/13 05:52:56;;;;;;;22.10;12.45;;;;;;;3.36;96.17;102492.69;5070234;28;20028;-79
2024/01/13 05:55:22;;;;;;;23.70;12.30;;;;;;;3.37;96.56;102491.81;5084279;28;20078;-78
2024/01/13 05:57:47;;;;;;;20.83;12.82;;;;;;;3.36;96.56;102497.91;5084164;28;20763;-78
2024/01/13 06:00:13;;;;;;;22.42;13.77;;;;;;;3.35;96.57;102506.59;5080702;28;20023;-79
2024/01/13 06:02:39;;;;;;;21.00;13.00;;;;;;;3.38;96.31;102514.50;5083663;28;20028;-79
2024/01/13 06:05:06;;;;;;;28.75;15.90;;;;;;;3.41;96.48;102525.00;5072094;28;20028;-78
2024/01/13 06:07:31;;;;;;;25.50;15.52;;;;;;;3.39;96.61;102520.59;5070146;28;20077;-78
2024/01/13 06:09:57;;;;;;;25.90;14.65;;;;;;;3.42;96.45;102518.03;5061945;28;20119;-79
2024/01/13 06:12:22;;;;;;;26.85;16.75;;;;;;;3.37;96.48;102510.13;5069877;28;20046;-79
2024/01/13 06:14:48;;;;;;;28.77;16.50;;;;;;;3.39;96.76;102508.41;5087476;28;20119;-83
2024/01/13 06:17:13;;;;;;;29.20;16.50;;;;;;;3.40;96.45;102498.81;5067558;28;20387;-81
2024/01/13 06:19:38;;;;;;;29.77;17.65;;;;;;;3.43;96.60;102499.75;5088419;28;20031;-83
2024/01/13 06:22:04;;;;;;;30.13;18.38;;;;;;;3.44;96.49;102491.03;5084651;28;20032;-83
2024/01/13 06:24:30;;;;;;;32.67;18.77;;;;;;;3.42;96.21;102486.66;5069332;28;20047;-83
2024/01/13 06:26:55;;;;;;;32.28;17.98;;;;;;;3.34;96.74;102473.47;5072159;28;20024;-82
2024/01/13 06:29:20;;;;;;;34.53;20.45;;;;;;;3.31;96.75;102473.41;5080601;28;20111;-83
2024/01/13 06:31:46;;;;;;;33.38;17.95;;;;;;;3.33;96.74;102467.34;5067536;28;20043;-83
2024/01/13 06:34:11;;;;;;;31.95;19.23;;;;;;;3.26;97.33;102454.16;5069726;28;20075;-83
2024/01/13 06:36:36;;;;;;;33.00;20.35;;;;;;;3.23;97.30;102443.69;5088954;28;20032;-82
2024/01/13 06:39:02;;;;;;;38.42;21.75;;;;;;;3.24;97.09;102445.44;5079862;28;20035;-82
2024/01/13 06:41:27;;;;;;;34.88;20.02;;;;;;;3.25;97.22;102452.41;5070529;28;20314;-83
2024/01/13 06:43:53;;;;;;;35.13;19.13;;;;;;;3.28;97.02;102457.69;5080812;28;20116;-82
2024/01/13 06:46:18;;;;;;;36.65;20.33;;;;;;;3.29;97.11;102446.38;5074188;28;20379;-83
2024/01/13 06:48:45;;;;;;;41.17;20.50;;;;;;;3.30;96.85;102446.38;5085943;28;20036;-83
2024/01/13 06:51:10;;;;;;;39.85;21.42;;;;;;;3.31;96.93;102448.16;5091939;28;20100;-83
2024/01/13 06:53:35;;;;;;;36.35;20.33;;;;;;;3.35;96.93;102461.25;5070329;28;20087;-82
2024/01/13 06:56:01;;;;;;;40.70;21.20;;;;;;;3.35;97.06;102450.81;5091271;28;20419;-83
2024/01/13 06:58:26;;;;;;;35.33;20.35;;;;;;;3.35;96.82;102429.91;5061507;28;20024;-82
2024/01/13 07:00:51;;;;;;;36.67;20.85;;;;;;;3.32;96.77;102423.78;5069102;28;20032;-82
2024/01/13 07:03:17;;;;;;;37.53;21.85;;;;;;;3.24;97.29;102420.16;5064101;28;20020;-83
2024/01/13 07:05:42;;;;;;;38.38;21.92;;;;;;;3.32;97.01;102433.38;5089915;28;20107;-79
2024/01/13 07:08:08;;;;;;;41.70;21.00;;;;;;;3.34;97.19;102426.41;5086696;28;20854;-79
2024/01/13 07:10:34;;;;;;;36.70;19.77;;;;;;;3.32;97.00;102418.56;5083466;28;20051;-78
2024/01/13 07:13:00;;;;;;;36.38;21.63;;;;;;;3.30;97.19;102404.56;5084480;28;20377;-79
2024/01/13 07:15:25;;;;;;;38.88;22.00;;;;;;;3.24;96.88;102387.94;5094018;28;20031;-78
2024/01/13 07:17:52;;;;;;;35.50;20.17;;;;;;;3.28;97.47;102400.19;5086046;28;20027;-78
2024/01/13 07:20:18;;;;;;;36.33;21.10;;;;;;;3.29;97.49;102394.97;5073839;28;20189;-79
2024/01/13 07:22:44;;;;;;;35.05;20.42;;;;;;;3.27;97.77;102391.47;5088780;28;20499;-78
2024/01/13 07:25:09;;;;;;;38.00;23.13;;;;;;;3.27;97.91;102382.75;5075743;28;20020;-83
2024/01/13 07:27:35;;;;;;;37.55;20.20;;;;;;;3.32;97.50;102381.09;5066511;28;20062;-83
2024/01/13 07:30:01;;;;;;;36.78;20.25;;;;;;;3.29;97.94;102376.69;5092702;28;20053;-82
2024/01/13 07:32:27;;;;;;;33.13;19.30;;;;;;;3.37;97.41;102379.41;5086667;28;20420;-81
2024/01/13 07:34:52;;;;;;;39.33;20.65;;;;;;;3.35;98.00;102378.50;5090348;28;20020;-82
2024/01/13 07:37:18;;;;;;;39.97;20.92;;;;;;;3.32;97.37;102376.72;5071496;28;20038;-82
2024/01/13 07:39:43;;;;;;;35.42;20.10;;;;;;;3.32;97.26;102381.09;5091749;28;20488;-82
2024/01/13 07:42:09;;;;;;;38.92;20.98;;;;;;;3.36;97.42;102395.97;5078919;28;20039;-82
2024/01/13 07:44:34;;;;;;;39.85;21.10;;;;;;;3.40;97.45;102389.91;5068765;28;20024;-83
2024/01/13 07:47:03;;;;;;;33.08;19.00;;;;;;;3.36;97.71;102380.28;5068404;28;20063;-82
2024/01/13 07:49:28;;;;;;;35.47;19.40;;;;;;;3.38;97.70;102386.41;5092879;28;20028;-81
2024/01/13 07:51:54;;;;;;;37.97;22.23;;;;;;;3.32;97.58;102366.28;5086565;28;20032;-82
2024/01/13 07:54:20;;;;;;;39.13;21.38;;;;;;;3.28;97.91;102360.97;5074745;28;20024;-82
2024/01/13 07:56:47;;;;;;;40.03;21.42;;;;;;;3.24;97.93;102354.81;5087936;28;20032;-82
2024/01/13 07:59:13;;;;;;;40.30;21.65;;;;;;;3.26;98.39;102345.28;5091844;28;20117;-82
2024/01/13 08:01:39;;;;;;;35.40;21.17;;;;;;;3.29;97.72;102334.84;5081871;28;20019;-82
2024/01/13 08:04:04;;;;;;;41.70;21.92;;;;;;;3.31;97.84;102359.31;5093847;28;20024;-80
2024/01/13 08:06:30;;;;;;;39.45;20.23;;;;;;;3.34;97.78;102355.84;5089272;28;20027;-82
2024/01/13 08:08:56;;;;;;;41.63;22.33;;;;;;;3.31;97.90;102340.09;5089570;28;20120;-82
2024/01/13 08:11:21;;;;;;;41.15;20.75;;;;;;;3.28;98.05;102329.63;5086668;28;20078;-81
2024/01/13 08:13:47;;;;;;;43.28;21.42;;;;;;;3.28;97.78;102316.56;5069444;28;20020;-80
2024/01/13 08:16:12;;;;;;;44.15;21.70;;;;;;;3.25;98.16;102333.06;5086688;28;20032;-81
2024/01/13 08:18:37;;;;;;;43.03;22.08;;;;;;;3.32;97.99;102328.81;5090838;28;20040;-81
2024/01/13 08:21:03;;;;;;;36.05;20.95;;;;;;;3.32;98.00;102323.59;5083566;28;20028;-81
2024/01/13 08:23:28;;;;;;;35.28;20.85;;;;;;;3.33;98.00;102325.34;5074033;28;20040;-83
2024/01/13 08:25:53;;;;;;;36.75;17.73;;;;;;;3.27;98.17;102301.75;5094277;28;20016;-78
2024/01/13 08:28:19;;;;;;;37.60;20.00;;;;;;;3.31;97.77;102306.13;5072324;28;20070;-78
2024/01/13 08:30:45;;;;;;;36.28;19.50;;;;;;;3.36;97.58;102314.94;5066150;28;20032;-78
2024/01/13 08:33:11;;;;;;;34.00;19.20;;;;;;;3.42;97.47;102325.44;5087825;28;20031;-79
2024/01/13 08:35:36;;;;;;;43.05;20.45;;;;;;;3.44;97.39;102318.50;5084786;28;20087;-82
2024/01/13 08:38:01;;;;;;;34.20;18.88;;;;;;;3.46;97.13;102310.69;5091605;28;20043;-82
2024/01/13 08:40:29;;;;;;;32.72;18.38;;;;;;;3.45;97.06;102314.13;5086050;28;20031;-82
2024/01/13 08:42:56;;;;;;;36.60;19.52;;;;;;;3.50;97.48;102310.75;5083925;28;20213;-82
2024/01/13 08:45:29;;;;;;;36.20;20.20;;;;;;;3.50;97.48;102323.81;5086161;28;20074;-83
2024/01/13 08:47:55;;;;;;;31.85;17.63;;;;;;;3.54;97.57;102330.84;5089086;28;20035;-82
2024/01/13 08:50:20;;;;;;;36.33;18.95;;;;;;;3.58;97.37;102327.38;5066152;28;20530;-81
2024/01/13 08:52:46;;;;;;;34.22;18.50;;;;;;;3.55;97.26;102327.38;5070285;28;20064;-82
2024/01/13 08:55:11;;;;;;;39.38;21.05;;;;;;;3.60;97.36;102323.94;5073510;28;20080;-80
2024/01/13 08:57:36;;;;;;;37.53;20.20;;;;;;;3.63;97.29;102321.34;5092546;28;20039;-81
2024/01/13 09:00:06;;;;;;;38.17;20.25;;;;;;;3.61;97.11;102329.19;5090277;28;20059;-81
2024/01/13 09:02:31;;;;;;;39.72;19.90;;;;;;;3.67;97.29;102330.97;5092298;28;20016;-82
2024/01/13 09:04:56;;;;;;;33.92;18.85;;;;;;;3.60;97.38;102324.81;5091288;28;20391;-82
2024/01/13 09:07:22;;;;;;;37.90;21.23;;;;;;;3.61;97.17;102323.06;5085979;28;20070;-82
2024/01/13 09:09:47;;;;;;;34.88;18.42;;;;;;;3.68;97.31;102324.88;5090952;28;20039;-80
2024/01/13 09:12:12;;;;;;;41.47;21.70;;;;;;;3.69;97.05;102329.28;5071848;28;20039;-82
2024/01/13 09:14:37;;;;;;;42.28;20.20;;;;;;;3.68;97.13;102327.50;5085352;28;20434;-81
2024/01/13 09:17:03;;;;;;;39.38;20.80;;;;;;;3.62;97.23;102320.47;5086240;28;20202;-81
2024/01/13 09:19:28;;;;;;;40.20;21.40;;;;;;;3.68;96.93;102323.16;5067613;28;20403;-82
2024/01/13 09:21:53;;;;;;;43.70;23.45;;;;;;;3.68;97.05;102324.88;5086212;28;20047;-81
2024/01/13 09:24:19;;;;;;;38.95;19.98;;;;;;;3.69;96.96;102324.94;5089159;28;20399;-81
2024/01/13 09:26:45;;;;;;;43.50;25.02;;;;;;;3.67;96.83;102320.53;5070089;28;20023;-83
2024/01/13 09:29:11;;;;;;;41.17;21.63;;;;;;;3.67;97.22;102326.63;5084667;28;20033;-81
2024/01/13 09:31:37;;;;;;;50.97;25.55;;;;;;;3.68;97.28;102330.13;5093197;28;20459;-81
2024/01/13 09:34:02;;;;;;;43.22;23.17;;;;;;;3.72;97.05;102326.69;5079937;28;20081;-82
2024/01/13 09:36:28;;;;;;;39.78;21.65;;;;;;;3.71;97.51;102311.84;5090095;28;20114;-82
2024/01/13 09:38:54;;;;;;;42.30;23.35;;;;;;;3.74;96.93;102311.91;5087249;28;20537;-83
2024/01/13 09:41:19;;;;;;;44.88;24.65;;;;;;;3.75;96.71;102318.88;5087515;28;20020;-82
2024/01/13 09:44:08;;;;;;;43.95;24.20;;;;;;;3.80;96.77;102317.19;5083690;28;20487;-83
2024/01/13 09:46:35;;;;;;;42.83;24.92;;;;;;;3.75;96.73;102303.19;5088964;28;20119;-78
2024/01/13 09:49:05;;;;;;;43.85;23.55;;;;;;;3.78;96.53;102318.94;5081732;28;20119;-81
2024/01/13 09:51:31;;;;;;;40.83;22.83;;;;;;;3.81;96.50;102309.34;5080779;28;20024;-80
2024/01/13 09:54:06;;;;;;;41.78;22.27;;;;;;;3.80;96.41;102301.50;5067532;28;20039;-80
2024/01/13 09:56:47;;;;;;;41.25;21.77;;;;;;;3.79;96.20;102294.53;5079383;28;20476;-80
2024/01/13 09:59:13;;;;;;;37.70;21.63;;;;;;;3.75;96.62;102287.50;5085525;28;20454;-80
2024/01/13 10:01:39;;;;;;;36.35;21.08;;;;;;;3.75;96.58;102283.16;5067699;28;20016;-80
2024/01/13 10:04:07;;;;;;;36.83;19.52;;;;;;;3.78;96.60;102291.03;5083843;28;20016;-80
2024/01/13 10:06:34;;;;;;;35.00;18.35;;;;;;;3.81;96.26;102291.03;5060296;28;20376;-80
2024/01/13 10:09:00;;;;;;;35.50;20.02;;;;;;;3.85;96.15;102284.13;5064815;28;20025;-78
2024/01/13 10:11:25;;;;;;;33.70;20.15;;;;;;;3.84;96.20;102279.75;5061195;28;20028;-78
2024/01/13 10:14:04;;;;;;;34.85;19.25;;;;;;;3.86;96.01;102285.88;5067109;28;20426;-78
2024/01/13 10:16:32;;;;;;;30.50;18.45;;;;;;;3.82;95.78;102284.97;5063102;28;20024;-78
2024/01/13 10:19:06;;;;;;;34.67;18.75;;;;;;;3.88;96.01;102292.00;5085508;28;20028;-77
2024/01/13 10:21:32;;;;;;;32.35;18.42;;;;;;;3.86;95.94;102287.59;5085748;28;20027;-78
2024/01/13 10:23:59;;;;;;;31.60;18.58;;;;;;;3.90;95.61;102286.78;5063277;28;20024;-78
2024/01/13 10:26:25;;;;;;;29.25;18.00;;;;;;;3.89;95.69;102279.81;5054713;28;20028;-78
2024/01/13 10:28:51;;;;;;;31.25;18.33;;;;;;;3.93;95.66;102277.25;5063872;28;20051;-78
2024/01/13 10:31:18;;;;;;;30.80;17.60;;;;;;;3.90;95.41;102277.19;5065572;28;20479;-78
2024/01/13 10:33:47;;;;;;;34.55;19.08;;;;;;;3.91;95.60;102267.59;5067046;28;20028;-79
2024/01/13 10:36:13;;;;;;;28.15;17.35;;;;;;;3.95;95.16;102275.50;5066036;28;20463;-78
2024/01/13 10:38:41;;;;;;;32.35;18.40;;;;;;;3.95;95.25;102270.25;5083141;28;20032;-80
2024/01/13 10:41:11;;;;;;;29.95;17.13;;;;;;;3.96;94.98;102271.13;5084155;28;20077;-78
2024/01/13 10:43:42;;;;;;;30.30;17.63;;;;;;;3.98;95.24;102264.19;5070221;28;20453;-79
2024/01/13 10:46:22;;;;;;;29.48;17.75;;;;;;;3.96;94.96;102265.91;5090930;28;20475;-77
2024/01/13 10:48:50;;;;;;;30.13;17.35;;;;;;;3.95;94.85;102264.16;5070091;28;20097;-77
2024/01/13 10:51:42;;;;;;;27.45;17.33;;;;;;;4.00;94.93;102258.09;5065081;28;20024;-79
2024/01/13 10:54:08;;;;;;;27.95;17.67;;;;;;;3.99;94.79;102261.59;5067966;28;20028;-79
2024/01/13 10:56:37;;;;;;;28.67;17.90;;;;;;;3.97;94.96;102250.25;5084764;28;20044;-83
2024/01/13 10:59:04;;;;;;;28.60;17.27;;;;;;;3.96;94.80;102245.84;5082991;28;20369;-82
2024/01/13 11:01:30;;;;;;;29.55;17.40;;;;;;;3.98;94.64;102238.91;5080496;28;20552;-82
2024/01/13 11:03:58;;;;;;;29.17;17.35;;;;;;;3.98;94.65;102238.91;5060165;28;20472;-83
2024/01/13 11:06:25;;;;;;;29.92;19.48;;;;;;;3.99;94.81;102237.16;5058872;28;20035;-84
2024/01/13 11:08:51;;;;;;;31.65;19.00;;;;;;;3.93;94.56;102227.53;5080837;28;20070;-83
2024/01/13 11:11:23;;;;;;;33.50;18.58;;;;;;;3.99;94.67;102229.31;5066093;28;20051;-83
2024/01/13 11:14:21;;;;;;;29.02;18.02;;;;;;;3.97;94.68;102224.06;5065747;28;20025;-83